sensor_id;sensor_type;location;lat;lon;timestamp;pressure;altitude;pressure_sealevel;temperature;humidity
54172;BME280;40076;52.354;4.970;2022-12-10T00:01:32;100843.03;;;1.03;100.00
54172;BME280;40076;52.354;4.970;2022-12-10T00:03:58;100835.88;;;1.03;100.00
54172;BME280;40076;52.354;4.970;2022-12-10T00:06:26;100838.78;;;1.02;100.00
54172;BME280;40076;52.354;4.970;2022-12-10T00:08:52;100844.09;;;1.02;100.00
54172;BME280;40076;52.354;4.970;2022-12-10T00:11:18;100841.97;;;0.99;100.00
54172;BME280;40076;52.354;4.970;2022-12-10T00:13:45;100834.22;;;0.97;100.00
54172;BME280;40076;52.354;4.970;2022-12-10T00:16:13;100840.59;;;0.96;100.00
54172;BME280;40076;52.354;4.970;2022-12-10T00:18:39;100843.25;;;0.96;100.00
54172;BME280;40076;52.354;4.970;2022-12-10T00:21:06;100843.50;;;0.95;100.00
54172;BME280;40076;52.354;4.970;2022-12-10T00:23:32;100842.16;;;0.92;100.00
54172;BME280;40076;52.354;4.970;2022-12-10T00:26:06;100846.38;;;0.88;100.00
54172;BME280;40076;52.354;4.970;2022-12-10T00:28:32;100840.75;;;0.85;100.00
54172;BME280;40076;52.354;4.970;2022-12-10T00:31:11;100834.91;;;0.83;100.00
54172;BME280;40076;52.354;4.970;2022-12-10T00:33:37;100838.06;;;0.80;100.00
54172;BME280;40076;52.354;4.970;2022-12-10T00:36:05;100838.03;;;0.74;100.00
54172;BME280;40076;52.354;4.970;2022-12-10T00:38:31;100838.84;;;0.75;100.00
54172;BME280;40076;52.354;4.970;2022-12-10T00:40:56;100838.84;;;0.75;100.00
54172;BME280;40076;52.354;4.970;2022-12-10T00:43:21;100833.78;;;0.73;100.00
54172;BME280;40076;52.354;4.970;2022-12-10T00:45:47;100837.47;;;0.72;100.00
54172;BME280;40076;52.354;4.970;2022-12-10T00:48:12;100835.06;;;0.71;100.00
54172;BME280;40076;52.354;4.970;2022-12-10T00:50:37;100831.84;;;0.69;100.00
54172;BME280;40076;52.354;4.970;2022-12-10T00:53:03;100836.63;;;0.67;100.00
54172;BME280;40076;52.354;4.970;2022-12-10T00:55:28;100834.22;;;0.65;100.00
54172;BME280;40076;52.354;4.970;2022-12-10T00:57:53;100839.00;;;0.63;100.00
54172;BME280;40076;52.354;4.970;2022-12-10T01:00:19;100837.13;;;0.64;100.00
54172;BME280;40076;52.354;4.970;2022-12-10T01:02:44;100837.13;;;0.64;100.00
54172;BME280;40076;52.354;4.970;2022-12-10T01:05:09;100837.13;;;0.64;100.00
54172;BME280;40076;52.354;4.970;2022-12-10T01:07:35;100846.97;;;0.63;100.00
54172;BME280;40076;52.354;4.970;2022-12-10T01:10:00;100842.69;;;0.62;100.00
54172;BME280;40076;52.354;4.970;2022-12-10T01:12:25;100846.69;;;0.60;100.00
54172;BME280;40076;52.354;4.970;2022-12-10T01:14:51;100842.91;;;0.56;100.00
54172;BME280;40076;52.354;4.970;2022-12-10T01:17:16;100848.47;;;0.54;100.00
54172;BME280;40076;52.354;4.970;2022-12-10T01:19:41;100863.09;;;0.52;100.00
54172;BME280;40076;52.354;4.970;2022-12-10T01:22:07;100867.03;;;0.49;100.00
54172;BME280;40076;52.354;4.970;2022-12-10T01:24:32;100869.94;;;0.48;100.00
54172;BME280;40076;52.354;4.970;2022-12-10T01:26:57;100868.34;;;0.47;100.00
54172;BME280;40076;52.354;4.970;2022-12-10T01:29:23;100878.16;;;0.46;100.00
54172;BME280;40076;52.354;4.970;2022-12-10T01:31:54;100869.16;;;0.47;100.00
54172;BME280;40076;52.354;4.970;2022-12-10T01:34:20;100871.81;;;0.47;100.00
54172;BME280;40076;52.354;4.970;2022-12-10T01:36:49;100868.09;;;0.48;100.00
54172;BME280;40076;52.354;4.970;2022-12-10T01:39:16;100877.13;;;0.47;100.00
54172;BME280;40076;52.354;4.970;2022-12-10T01:41:50;100870.75;;;0.48;100.00
54172;BME280;40076;52.354;4.970;2022-12-10T01:46:46;100875.81;;;0.50;100.00
54172;BME280;40076;52.354;4.970;2022-12-10T01:49:14;100888.31;;;0.49;100.00
54172;BME280;40076;52.354;4.970;2022-12-10T01:51:42;100895.81;;;0.52;100.00
54172;BME280;40076;52.354;4.970;2022-12-10T01:54:13;100884.38;;;0.52;100.00
54172;BME280;40076;52.354;4.970;2022-12-10T01:56:42;100879.84;;;0.52;100.00
54172;BME280;40076;52.354;4.970;2022-12-10T01:59:09;100887.03;;;0.52;100.00
54172;BME280;40076;52.354;4.970;2022-12-10T02:01:42;100889.91;;;0.50;100.00
54172;BME280;40076;52.354;4.970;2022-12-10T02:07:25;100887.50;;;0.49;100.00
54172;BME280;40076;52.354;4.970;2022-12-10T02:10:08;100889.59;;;0.47;100.00
54172;BME280;40076;52.354;4.970;2022-12-10T02:12:46;100889.59;;;0.47;100.00
54172;BME280;40076;52.354;4.970;2022-12-10T02:17:45;100893.88;;;0.48;100.00
54172;BME280;40076;52.354;4.970;2022-12-10T02:20:37;100887.25;;;0.50;100.00
54172;BME280;40076;52.354;4.970;2022-12-10T02:23:11;100899.25;;;0.53;100.00
54172;BME280;40076;52.354;4.970;2022-12-10T02:25:49;100897.13;;;0.55;100.00
54172;BME280;40076;52.354;4.970;2022-12-10T02:28:30;100895.28;;;0.55;100.00
54172;BME280;40076;52.354;4.970;2022-12-10T02:30:58;100892.69;;;0.60;100.00
54172;BME280;40076;52.354;4.970;2022-12-10T02:33:25;100899.59;;;0.61;100.00
54172;BME280;40076;52.354;4.970;2022-12-10T02:35:53;100892.72;;;0.65;100.00
54172;BME280;40076;52.354;4.970;2022-12-10T02:38:24;100894.34;;;0.66;100.00
54172;BME280;40076;52.354;4.970;2022-12-10T02:40:56;100887.97;;;0.67;100.00
54172;BME280;40076;52.354;4.970;2022-12-10T02:43:23;100894.91;;;0.68;100.00
54172;BME280;40076;52.354;4.970;2022-12-10T02:45:50;100893.81;;;0.69;100.00
54172;BME280;40076;52.354;4.970;2022-12-10T02:48:17;100888.78;;;0.68;100.00
54172;BME280;40076;52.354;4.970;2022-12-10T02:50:43;100889.81;;;0.67;100.00
54172;BME280;40076;52.354;4.970;2022-12-10T02:53:09;100882.66;;;0.67;100.00
54172;BME280;40076;52.354;4.970;2022-12-10T03:04:16;100883.38;;;0.63;100.00
54172;BME280;40076;52.354;4.970;2022-12-10T03:06:51;100875.66;;;0.61;100.00
54172;BME280;40076;52.354;4.970;2022-12-10T03:09:22;100880.97;;;0.61;100.00
54172;BME280;40076;52.354;4.970;2022-12-10T03:11:50;100882.06;;;0.60;100.00
54172;BME280;40076;52.354;4.970;2022-12-10T03:14:26;100882.06;;;0.60;100.00
54172;BME280;40076;52.354;4.970;2022-12-10T03:16:56;100883.63;;;0.61;100.00
54172;BME280;40076;52.354;4.970;2022-12-10T03:19:25;100893.22;;;0.62;100.00
54172;BME280;40076;52.354;4.970;2022-12-10T03:21:52;100892.41;;;0.62;100.00
54172;BME280;40076;52.354;4.970;2022-12-10T03:24:19;100890.56;;;0.62;100.00
54172;BME280;40076;52.354;4.970;2022-12-10T03:26:48;100888.94;;;0.61;100.00
54172;BME280;40076;52.354;4.970;2022-12-10T03:29:18;100885.25;;;0.62;100.00
54172;BME280;40076;52.354;4.970;2022-12-10T03:31:46;100881.53;;;0.63;100.00
54172;BME280;40076;52.354;4.970;2022-12-10T03:34:13;100878.88;;;0.63;100.00
54172;BME280;40076;52.354;4.970;2022-12-10T03:36:39;100879.69;;;0.64;100.00
54172;BME280;40076;52.354;4.970;2022-12-10T03:39:05;100875.16;;;0.64;100.00
54172;BME280;40076;52.354;4.970;2022-12-10T03:41:30;100877.53;;;0.61;100.00
54172;BME280;40076;52.354;4.970;2022-12-10T03:43:57;100876.19;;;0.58;100.00
54172;BME280;40076;52.354;4.970;2022-12-10T03:46:25;100875.94;;;0.60;100.00
54172;BME280;40076;52.354;4.970;2022-12-10T03:48:51;100872.47;;;0.59;100.00
54172;BME280;40076;52.354;4.970;2022-12-10T03:51:18;100874.56;;;0.57;100.00
54172;BME280;40076;52.354;4.970;2022-12-10T03:53:43;100880.94;;;0.56;100.00
54172;BME280;40076;52.354;4.970;2022-12-10T03:56:09;100871.34;;;0.55;100.00
54172;BME280;40076;52.354;4.970;2022-12-10T03:58:34;100876.44;;;0.57;100.00
54172;BME280;40076;52.354;4.970;2022-12-10T04:01:01;100885.19;;;0.57;100.00
54172;BME280;40076;52.354;4.970;2022-12-10T04:03:26;100886.25;;;0.56;100.00
54172;BME280;40076;52.354;4.970;2022-12-10T04:05:51;100879.31;;;0.55;100.00
54172;BME280;40076;52.354;4.970;2022-12-10T04:08:17;100880.94;;;0.56;100.00
54172;BME280;40076;52.354;4.970;2022-12-10T04:10:42;100882.00;;;0.55;100.00
54172;BME280;40076;52.354;4.970;2022-12-10T04:13:07;100884.66;;;0.55;100.00
54172;BME280;40076;52.354;4.970;2022-12-10T04:15:51;100878.53;;;0.55;100.00
54172;BME280;40076;52.354;4.970;2022-12-10T04:18:35;100880.38;;;0.54;100.00
54172;BME280;40076;52.354;4.970;2022-12-10T04:21:01;100882.22;;;0.54;100.00
54172;BME280;40076;52.354;4.970;2022-12-10T04:23:45;100884.66;;;0.55;100.00
54172;BME280;40076;52.354;4.970;2022-12-10T04:26:29;100886.25;;;0.56;100.00
54172;BME280;40076;52.354;4.970;2022-12-10T04:29:13;100880.94;;;0.56;100.00
54172;BME280;40076;52.354;4.970;2022-12-10T04:31:38;100876.44;;;0.57;100.00
54172;BME280;40076;52.354;4.970;2022-12-10T04:34:03;100892.38;;;0.57;100.00
54172;BME280;40076;52.354;4.970;2022-12-10T04:36:29;100882.22;;;0.54;100.00
54172;BME280;40076;52.354;4.970;2022-12-10T04:38:54;100885.16;;;0.52;100.00
54172;BME280;40076;52.354;4.970;2022-12-10T04:41:19;100885.16;;;0.52;100.00
54172;BME280;40076;52.354;4.970;2022-12-10T04:43:45;100889.13;;;0.50;100.00
54172;BME280;40076;52.354;4.970;2022-12-10T04:46:10;100884.28;;;0.47;100.00
54172;BME280;40076;52.354;4.970;2022-12-10T04:48:36;100882.16;;;0.44;100.00
54172;BME280;40076;52.354;4.970;2022-12-10T04:51:01;100886.66;;;0.43;100.00
54172;BME280;40076;52.354;4.970;2022-12-10T04:53:27;100886.91;;;0.42;100.00
54172;BME280;40076;52.354;4.970;2022-12-10T04:55:52;100891.13;;;0.37;100.00
54172;BME280;40076;52.354;4.970;2022-12-10T04:58:17;100889.53;;;0.36;100.00
54172;BME280;40076;52.354;4.970;2022-12-10T05:00:43;100891.28;;;0.31;100.00
54172;BME280;40076;52.354;4.970;2022-12-10T05:03:08;100896.59;;;0.31;100.00
54172;BME280;40076;52.354;4.970;2022-12-10T05:05:34;100888.91;;;0.29;100.00
54172;BME280;40076;52.354;4.970;2022-12-10T05:08:00;100896.09;;;0.29;100.00
54172;BME280;40076;52.354;4.970;2022-12-10T05:10:25;100892.38;;;0.30;100.00
54172;BME280;40076;52.354;4.970;2022-12-10T05:12:51;100895.84;;;0.30;100.00
54172;BME280;40076;52.354;4.970;2022-12-10T05:15:17;100898.50;;;0.30;100.00
54172;BME280;40076;52.354;4.970;2022-12-10T05:17:43;100887.06;;;0.30;100.00
54172;BME280;40076;52.354;4.970;2022-12-10T05:20:08;100893.94;;;0.31;100.00
54172;BME280;40076;52.354;4.970;2022-12-10T05:22:34;100899.03;;;0.32;100.00
54172;BME280;40076;52.354;4.970;2022-12-10T05:25:18;100900.06;;;0.31;100.00
54172;BME280;40076;52.354;4.970;2022-12-10T05:27:43;100895.56;;;0.32;100.00
54172;BME280;40076;52.354;4.970;2022-12-10T05:30:09;100897.41;;;0.31;100.00
54172;BME280;40076;52.354;4.970;2022-12-10T05:32:35;100890.75;;;0.29;100.00
54172;BME280;40076;52.354;4.970;2022-12-10T05:35:00;100895.50;;;0.27;100.00
54172;BME280;40076;52.354;4.970;2022-12-10T05:37:25;100884.56;;;0.23;100.00
54172;BME280;40076;52.354;4.970;2022-12-10T05:39:50;100882.72;;;0.24;100.00
54172;BME280;40076;52.354;4.970;2022-12-10T05:42:16;100887.50;;;0.22;100.00
54172;BME280;40076;52.354;4.970;2022-12-10T05:44:41;100890.97;;;0.22;100.00
54172;BME280;40076;52.354;4.970;2022-12-10T05:47:06;100886.19;;;0.24;100.00
54172;BME280;40076;52.354;4.970;2022-12-10T05:49:32;100893.34;;;0.24;100.00
54172;BME280;40076;52.354;4.970;2022-12-10T05:51:57;100890.69;;;0.24;100.00
54172;BME280;40076;52.354;4.970;2022-12-10T05:54:22;100899.47;;;0.24;100.00
54172;BME280;40076;52.354;4.970;2022-12-10T05:56:48;100893.91;;;0.26;100.00
54172;BME280;40076;52.354;4.970;2022-12-10T05:59:13;100904.78;;;0.24;100.00
54172;BME280;40076;52.354;4.970;2022-12-10T06:01:38;100902.13;;;0.24;100.00
54172;BME280;40076;52.354;4.970;2022-12-10T06:04:04;100896.28;;;0.22;100.00
54172;BME280;40076;52.354;4.970;2022-12-10T06:06:36;100905.28;;;0.21;100.00
54172;BME280;40076;52.354;4.970;2022-12-10T06:09:02;100907.16;;;0.21;100.00
54172;BME280;40076;52.354;4.970;2022-12-10T06:11:28;100908.19;;;0.20;100.00
54172;BME280;40076;52.354;4.970;2022-12-10T06:13:56;100910.28;;;0.18;100.00
54172;BME280;40076;52.354;4.970;2022-12-10T06:16:22;100904.97;;;0.18;100.00
54172;BME280;40076;52.354;4.970;2022-12-10T06:18:48;100911.84;;;0.14;100.00
54172;BME280;40076;52.354;4.970;2022-12-10T06:21:15;100907.56;;;0.13;100.00
54172;BME280;40076;52.354;4.970;2022-12-10T06:23:42;100904.13;;;0.12;100.00
54172;BME280;40076;52.354;4.970;2022-12-10T06:26:19;100899.28;;;0.09;100.00
54172;BME280;40076;52.354;4.970;2022-12-10T06:28:46;100902.75;;;0.10;100.00
54172;BME280;40076;52.354;4.970;2022-12-10T06:31:12;100907.53;;;0.08;100.00
54172;BME280;40076;52.354;4.970;2022-12-10T06:33:38;100908.31;;;0.08;100.00
54172;BME280;40076;52.354;4.970;2022-12-10T06:36:07;100905.66;;;0.08;100.00
54172;BME280;40076;52.354;4.970;2022-12-10T06:38:34;100924.25;;;0.08;100.00
54172;BME280;40076;52.354;4.970;2022-12-10T06:41:00;100927.69;;;0.09;100.00
54172;BME280;40076;52.354;4.970;2022-12-10T06:43:28;100931.16;;;0.09;100.00
54172;BME280;40076;52.354;4.970;2022-12-10T06:45:54;100931.16;;;0.09;100.00
54172;BME280;40076;52.354;4.970;2022-12-10T06:48:20;100935.44;;;0.10;100.00
54172;BME280;40076;52.354;4.970;2022-12-10T06:50:45;100939.94;;;0.10;100.00
54172;BME280;40076;52.354;4.970;2022-12-10T06:53:10;100934.34;;;0.06;100.00
54172;BME280;40076;52.354;4.970;2022-12-10T06:55:37;100933.78;;;0.04;100.00
54172;BME280;40076;52.354;4.970;2022-12-10T06:58:03;100935.63;;;0.04;100.00
54172;BME280;40076;52.354;4.970;2022-12-10T07:00:29;100934.25;;;0.01;100.00
54172;BME280;40076;52.354;4.970;2022-12-10T07:02:54;100944.88;;;0.01;100.00
54172;BME280;40076;52.354;4.970;2022-12-10T07:05:19;100945.69;;;0.02;100.00
54172;BME280;40076;52.354;4.970;2022-12-10T07:07:45;100945.94;;;0.00;100.00
54172;BME280;40076;52.354;4.970;2022-12-10T07:10:11;100945.44;;;0.03;100.00
54172;BME280;40076;52.354;4.970;2022-12-10T07:12:36;100946.81;;;0.06;100.00
54172;BME280;40076;52.354;4.970;2022-12-10T07:15:02;100950.81;;;0.08;100.00
54172;BME280;40076;52.354;4.970;2022-12-10T07:17:28;100945.78;;;0.07;100.00
54172;BME280;40076;52.354;4.970;2022-12-10T07:19:53;100954.03;;;0.10;100.00
54172;BME280;40076;52.354;4.970;2022-12-10T07:22:18;100965.47;;;0.11;100.00
54172;BME280;40076;52.354;4.970;2022-12-10T07:24:44;100969.16;;;0.10;100.00
54172;BME280;40076;52.354;4.970;2022-12-10T07:27:09;100972.41;;;0.12;100.00
54172;BME280;40076;52.354;4.970;2022-12-10T07:29:35;100969.97;;;0.10;100.00
54172;BME280;40076;52.354;4.970;2022-12-10T07:32:00;100971.81;;;0.10;100.00
54172;BME280;40076;52.354;4.970;2022-12-10T07:34:26;100971.81;;;0.10;100.00
54172;BME280;40076;52.354;4.970;2022-12-10T07:36:51;100965.47;;;0.11;100.00
54172;BME280;40076;52.354;4.970;2022-12-10T07:39:17;100964.09;;;0.08;100.00
54172;BME280;40076;52.354;4.970;2022-12-10T07:41:54;100962.75;;;0.06;100.00
54172;BME280;40076;52.354;4.970;2022-12-10T07:44:22;100959.06;;;0.07;100.00
54172;BME280;40076;52.354;4.970;2022-12-10T07:46:51;100956.63;;;0.05;100.00
54172;BME280;40076;52.354;4.970;2022-12-10T07:49:17;100959.59;;;0.09;100.00
54172;BME280;40076;52.354;4.970;2022-12-10T07:51:48;100966.50;;;0.10;100.00
54172;BME280;40076;52.354;4.970;2022-12-10T07:54:14;100963.63;;;0.11;100.00
54172;BME280;40076;52.354;4.970;2022-12-10T07:56:46;100962.56;;;0.12;100.00
54172;BME280;40076;52.354;4.970;2022-12-10T07:59:12;100973.19;;;0.12;100.00
54172;BME280;40076;52.354;4.970;2022-12-10T08:01:37;100970.06;;;0.15;100.00
54172;BME280;40076;52.354;4.970;2022-12-10T08:04:03;100974.06;;;0.18;100.00
54172;BME280;40076;52.354;4.970;2022-12-10T08:06:29;100979.38;;;0.18;100.00
54172;BME280;40076;52.354;4.970;2022-12-10T08:08:55;100977.53;;;0.18;100.00
54172;BME280;40076;52.354;4.970;2022-12-10T08:11:25;100975.91;;;0.17;100.00
54172;BME280;40076;52.354;4.970;2022-12-10T08:13:52;100985.50;;;0.18;100.00
54172;BME280;40076;52.354;4.970;2022-12-10T08:16:19;100985.25;;;0.20;100.00
54172;BME280;40076;52.354;4.970;2022-12-10T08:18:48;100988.47;;;0.22;100.00
54172;BME280;40076;52.354;4.970;2022-12-10T08:21:16;100992.47;;;0.24;100.00
54172;BME280;40076;52.354;4.970;2022-12-10T08:23:47;100994.31;;;0.24;100.00
54172;BME280;40076;52.354;4.970;2022-12-10T08:26:19;100993.78;;;0.22;100.00
54172;BME280;40076;52.354;4.970;2022-12-10T08:28:46;100998.06;;;0.23;100.00
54172;BME280;40076;52.354;4.970;2022-12-10T08:31:13;100994.84;;;0.21;100.00
54172;BME280;40076;52.354;4.970;2022-12-10T08:33:40;100999.09;;;0.22;100.00
54172;BME280;40076;52.354;4.970;2022-12-10T08:36:07;101007.31;;;0.20;100.00
54172;BME280;40076;52.354;4.970;2022-12-10T08:38:33;101009.41;;;0.18;100.00
54172;BME280;40076;52.354;4.970;2022-12-10T08:40:59;101005.94;;;0.18;100.00
54172;BME280;40076;52.354;4.970;2022-12-10T08:43:29;101014.72;;;0.18;100.00
54172;BME280;40076;52.354;4.970;2022-12-10T08:45:58;101014.16;;;0.16;100.00
54172;BME280;40076;52.354;4.970;2022-12-10T08:48:23;101017.88;;;0.15;100.00
54172;BME280;40076;52.354;4.970;2022-12-10T08:50:49;101020.53;;;0.15;100.00
54172;BME280;40076;52.354;4.970;2022-12-10T08:53:14;101020.28;;;0.17;100.00
54172;BME280;40076;52.354;4.970;2022-12-10T08:55:39;101021.88;;;0.18;100.00
54172;BME280;40076;52.354;4.970;2022-12-10T08:58:05;101023.50;;;0.19;100.00
54172;BME280;40076;52.354;4.970;2022-12-10T09:00:30;101033.56;;;0.17;100.00
54172;BME280;40076;52.354;4.970;2022-12-10T09:02:56;101044.47;;;0.15;100.00
54172;BME280;40076;52.354;4.970;2022-12-10T09:05:21;101046.31;;;0.15;100.00
54172;BME280;40076;52.354;4.970;2022-12-10T09:07:47;101037.25;;;0.16;100.00
54172;BME280;40076;52.354;4.970;2022-12-10T09:10:12;101035.41;;;0.16;100.00
54172;BME280;40076;52.354;4.970;2022-12-10T09:12:38;101037.84;;;0.18;100.00
54172;BME280;40076;52.354;4.970;2022-12-10T09:15:05;101041.28;;;0.18;100.00
54172;BME280;40076;52.354;4.970;2022-12-10T09:17:30;101030.66;;;0.18;100.00
54172;BME280;40076;52.354;4.970;2022-12-10T09:19:55;101029.88;;;0.18;100.00
54172;BME280;40076;52.354;4.970;2022-12-10T09:22:21;101030.44;;;0.20;100.00
54172;BME280;40076;52.354;4.970;2022-12-10T09:24:46;101035.97;;;0.18;100.00
54172;BME280;40076;52.354;4.970;2022-12-10T09:27:11;101043.72;;;0.20;100.00
54172;BME280;40076;52.354;4.970;2022-12-10T09:29:37;101053.31;;;0.21;100.00
54172;BME280;40076;52.354;4.970;2022-12-10T09:32:02;101052.25;;;0.22;100.00
54172;BME280;40076;52.354;4.970;2022-12-10T09:34:27;101049.34;;;0.23;100.00
54172;BME280;40076;52.354;4.970;2022-12-10T09:36:53;101050.66;;;0.21;100.00
54172;BME280;40076;52.354;4.970;2022-12-10T09:39:18;101056.75;;;0.21;100.00
54172;BME280;40076;52.354;4.970;2022-12-10T09:41:54;101057.00;;;0.20;100.00
54172;BME280;40076;52.354;4.970;2022-12-10T09:46:57;101047.47;;;0.24;100.00
54172;BME280;40076;52.354;4.970;2022-12-10T09:52:12;101065.59;;;0.27;100.00
54172;BME280;40076;52.354;4.970;2022-12-10T09:54:42;101064.56;;;0.28;100.00
54172;BME280;40076;52.354;4.970;2022-12-10T09:57:27;101064.81;;;0.26;100.00
54172;BME280;40076;52.354;4.970;2022-12-10T09:59:54;101067.69;;;0.25;100.00
54172;BME280;40076;52.354;4.970;2022-12-10T10:02:25;101068.25;;;0.27;100.00
54172;BME280;40076;52.354;4.970;2022-12-10T10:05:19;101067.47;;;0.26;100.00
54172;BME280;40076;52.354;4.970;2022-12-10T10:07:45;101066.19;;;0.29;100.00
54172;BME280;40076;52.354;4.970;2022-12-10T10:10:30;101073.63;;;0.32;100.00
54172;BME280;40076;52.354;4.970;2022-12-10T10:15:36;101072.03;;;0.31;100.00
54172;BME280;40076;52.354;4.970;2022-12-10T10:18:14;101063.00;;;0.32;100.00
54172;BME280;40076;52.354;4.970;2022-12-10T10:20:42;101058.50;;;0.32;100.00
54172;BME280;40076;52.354;4.970;2022-12-10T10:23:08;101067.53;;;0.31;100.00
54172;BME280;40076;52.354;4.970;2022-12-10T10:25:38;101068.59;;;0.30;100.00
54172;BME280;40076;52.354;4.970;2022-12-10T10:28:03;101063.53;;;0.29;100.00
54172;BME280;40076;52.354;4.970;2022-12-10T10:30:28;101076.81;;;0.29;100.00
54172;BME280;40076;52.354;4.970;2022-12-10T10:32:57;101079.94;;;0.26;100.00
54172;BME280;40076;52.354;4.970;2022-12-10T10:35:32;101079.13;;;0.25;100.00
54172;BME280;40076;52.354;4.970;2022-12-10T10:38:06;101079.38;;;0.24;100.00
54172;BME280;40076;52.354;4.970;2022-12-10T10:40:33;101076.25;;;0.27;100.00
54172;BME280;40076;52.354;4.970;2022-12-10T10:43:00;101085.75;;;0.23;100.00
54172;BME280;40076;52.354;4.970;2022-12-10T10:45:42;101083.09;;;0.23;100.00
54172;BME280;40076;52.354;4.970;2022-12-10T10:48:14;101082.03;;;0.24;100.00
54172;BME280;40076;52.354;4.970;2022-12-10T10:50:51;101085.50;;;0.24;100.00
54172;BME280;40076;52.354;4.970;2022-12-10T10:53:31;101079.38;;;0.24;100.00
54172;BME280;40076;52.354;4.970;2022-12-10T10:56:31;101074.38;;;0.27;100.00
54172;BME280;40076;52.354;4.970;2022-12-10T11:01:48;101072.53;;;0.28;100.00
54172;BME280;40076;52.354;4.970;2022-12-10T11:04:16;101073.59;;;0.27;100.00
54172;BME280;40076;52.354;4.970;2022-12-10T11:06:44;101078.41;;;0.30;100.00
54172;BME280;40076;52.354;4.970;2022-12-10T11:09:27;101071.72;;;0.27;100.00
54172;BME280;40076;52.354;4.970;2022-12-10T11:12:05;101073.34;;;0.28;100.00
54172;BME280;40076;52.354;4.970;2022-12-10T11:14:44;101077.03;;;0.27;100.00
54172;BME280;40076;52.354;4.970;2022-12-10T11:19:43;101071.72;;;0.27;100.00
54172;BME280;40076;52.354;4.970;2022-12-10T11:22:21;101080.50;;;0.28;100.00
54172;BME280;40076;52.354;4.970;2022-12-10T11:24:47;101081.56;;;0.27;100.00
54172;BME280;40076;52.354;4.970;2022-12-10T11:27:52;101075.19;;;0.28;100.00
54172;BME280;40076;52.354;4.970;2022-12-10T11:30:24;101070.13;;;0.26;100.00
54172;BME280;40076;52.354;4.970;2022-12-10T11:38:31;101073.19;;;0.18;100.00
54172;BME280;40076;52.354;4.970;2022-12-10T11:44:09;101070.53;;;0.18;100.00
54172;BME280;40076;52.354;4.970;2022-12-10T11:47:05;101076.66;;;0.19;100.00
54172;BME280;40076;52.354;4.970;2022-12-10T11:49:57;101070.53;;;0.18;100.00
54172;BME280;40076;52.354;4.970;2022-12-10T11:58:44;101066.03;;;0.19;100.00
54172;BME280;40076;52.354;4.970;2022-12-10T12:01:25;101066.81;;;0.19;100.00
54172;BME280;40076;52.354;4.970;2022-12-10T12:09:43;101066.59;;;0.21;100.00
54172;BME280;40076;52.354;4.970;2022-12-10T12:15:30;101067.94;;;0.23;100.00
54172;BME280;40076;52.354;4.970;2022-12-10T12:18:04;101061.09;;;0.27;100.00
54172;BME280;40076;52.354;4.970;2022-12-10T12:20:37;101059.81;;;0.30;100.00
54172;BME280;40076;52.354;4.970;2022-12-10T12:23:43;101058.75;;;0.31;100.00
54172;BME280;40076;52.354;4.970;2022-12-10T12:26:17;101049.72;;;0.32;100.00
54172;BME280;40076;52.354;4.970;2022-12-10T12:28:50;101054.22;;;0.31;100.00
54172;BME280;40076;52.354;4.970;2022-12-10T12:31:20;101051.09;;;0.34;100.00
54172;BME280;40076;52.354;4.970;2022-12-10T12:33:51;101053.19;;;0.32;100.00
54172;BME280;40076;52.354;4.970;2022-12-10T12:36:22;101057.22;;;0.35;100.00
54172;BME280;40076;52.354;4.970;2022-12-10T12:38:58;101067.28;;;0.33;100.00
54172;BME280;40076;52.354;4.970;2022-12-10T12:41:48;101062.53;;;0.35;100.00
54172;BME280;40076;52.354;4.970;2022-12-10T12:44:28;101059.06;;;0.34;100.00
54172;BME280;40076;52.354;4.970;2022-12-10T12:47:19;101063.34;;;0.35;100.00
54172;BME280;40076;52.354;4.970;2022-12-10T12:49:48;101060.91;;;0.34;100.00
54172;BME280;40076;52.354;4.970;2022-12-10T12:52:33;101055.59;;;0.34;100.00
54172;BME280;40076;52.354;4.970;2022-12-10T12:55:11;101064.94;;;0.36;100.00
54172;BME280;40076;52.354;4.970;2022-12-10T13:00:43;101071.06;;;0.37;100.00
54172;BME280;40076;52.354;4.970;2022-12-10T13:03:36;101070.03;;;0.38;100.00
54172;BME280;40076;52.354;4.970;2022-12-10T13:08:44;101084.66;;;0.41;100.00
54172;BME280;40076;52.354;4.970;2022-12-10T13:13:38;101074.34;;;0.44;100.00
54172;BME280;40076;52.354;4.970;2022-12-10T13:29:55;101093.72;;;0.61;100.00
54172;BME280;40076;52.354;4.970;2022-12-10T13:42:56;101116.06;;;0.60;100.00
54172;BME280;40076;52.354;4.970;2022-12-10T13:46:31;101121.66;;;0.64;100.00
54172;BME280;40076;52.354;4.970;2022-12-10T13:48:58;101109.19;;;0.64;100.00
54172;BME280;40076;52.354;4.970;2022-12-10T13:54:01;101126.50;;;0.67;100.00
54172;BME280;40076;52.354;4.970;2022-12-10T13:56:40;101131.03;;;0.66;100.00
54172;BME280;40076;52.354;4.970;2022-12-10T13:59:23;101128.38;;;0.66;100.00
54172;BME280;40076;52.354;4.970;2022-12-10T14:02:20;101131.84;;;0.67;100.00
54172;BME280;40076;52.354;4.970;2022-12-10T14:07:45;101134.72;;;0.65;100.00
54172;BME280;40076;52.354;4.970;2022-12-10T14:10:15;101140.28;;;0.64;100.00
54172;BME280;40076;52.354;4.970;2022-12-10T14:12:41;101131.75;;;0.62;100.00
54172;BME280;40076;52.354;4.970;2022-12-10T14:15:17;101123.53;;;0.63;100.00
54172;BME280;40076;52.354;4.970;2022-12-10T14:17:45;101126.19;;;0.63;100.00
54172;BME280;40076;52.354;4.970;2022-12-10T14:20:18;101127.50;;;0.61;100.00
54172;BME280;40076;52.354;4.970;2022-12-10T14:22:46;101121.09;;;0.62;100.00
54172;BME280;40076;52.354;4.970;2022-12-10T14:25:15;101130.69;;;0.63;100.00
54172;BME280;40076;52.354;4.970;2022-12-10T14:27:41;101128.84;;;0.63;100.00
54172;BME280;40076;52.354;4.970;2022-12-10T14:30:24;101132.88;;;0.66;100.00
54172;BME280;40076;52.354;4.970;2022-12-10T14:32:54;101132.88;;;0.66;100.00
54172;BME280;40076;52.354;4.970;2022-12-10T14:35:23;101131.84;;;0.67;100.00